createdAt,value
2022-10-24T00:00:37.581Z,15.13
2022-10-24T00:05:47.297Z,15.34
2022-10-24T00:10:49.416Z,15.39
2022-10-24T00:15:51.025Z,15.30
2022-10-24T00:20:52.539Z,15.14
2022-10-24T00:25:54.057Z,15.09
2022-10-24T00:30:55.474Z,15.05
2022-10-24T00:35:57.086Z,14.99
2022-10-24T00:40:58.501Z,14.97
2022-10-24T00:46:01.897Z,14.87
2022-10-24T00:51:14.989Z,14.70
2022-10-24T00:56:19.459Z,14.58
2022-10-24T01:01:21.073Z,14.48
2022-10-24T01:06:25.585Z,14.42
2022-10-24T01:11:44.989Z,14.38
2022-10-24T01:16:49.120Z,14.33
2022-10-24T01:21:57.370Z,14.29
2022-10-24T01:27:33.117Z,14.25
2022-10-24T01:32:37.483Z,14.21
2022-10-24T01:37:48.424Z,14.16
2022-10-24T01:42:53.365Z,14.16
2022-10-24T01:47:59.291Z,14.16
2022-10-24T01:53:02.298Z,14.17
2022-10-24T01:58:03.771Z,14.19
2022-10-24T02:03:16.704Z,14.24
2022-10-24T02:08:23.743Z,14.21
2022-10-24T02:13:42.252Z,14.13
2022-10-24T02:18:44.282Z,14.14
2022-10-24T02:23:50.895Z,14.14
2022-10-24T02:28:58.711Z,14.16
2022-10-24T02:34:03.550Z,14.16
2022-10-24T02:39:09.368Z,14.15
2022-10-24T02:44:15.260Z,14.11
2022-10-24T02:49:16.902Z,14.04
2022-10-24T02:54:18.439Z,14.03
2022-10-24T02:59:19.913Z,14.06
2022-10-24T03:04:21.480Z,14.13
2022-10-24T03:09:22.993Z,14.13
2022-10-24T03:14:24.488Z,14.10
2022-10-24T03:19:26.107Z,14.09
2022-10-24T03:24:43.364Z,14.15
2022-10-24T03:29:46.060Z,14.19
2022-10-24T03:34:47.564Z,14.19
2022-10-24T03:39:49.235Z,14.19
2022-10-24T03:44:50.702Z,14.19
2022-10-24T03:49:52.169Z,14.17
2022-10-24T03:54:53.645Z,14.16
2022-10-24T03:59:55.129Z,14.15
2022-10-24T04:04:56.623Z,14.23
2022-10-24T04:09:58.048Z,14.31
2022-10-24T04:15:02.488Z,14.33
2022-10-24T04:20:07.139Z,14.37
2022-10-24T04:25:08.624Z,14.48
2022-10-24T04:30:16.460Z,14.49
2022-10-24T04:35:18.172Z,14.53
2022-10-24T04:40:19.639Z,14.61
2022-10-24T04:45:21.072Z,14.64
2022-10-24T04:50:22.527Z,14.69
2022-10-24T04:55:24.295Z,14.67
2022-10-24T05:00:25.947Z,14.90
2022-10-24T05:05:27.633Z,15.08
2022-10-24T05:10:29.126Z,15.24
2022-10-24T05:15:30.805Z,15.32
2022-10-24T05:20:32.423Z,15.36
2022-10-24T05:25:33.911Z,15.39
2022-10-24T05:30:35.397Z,15.37
2022-10-24T05:35:38.261Z,15.44
2022-10-24T05:40:39.710Z,15.53
2022-10-24T05:45:41.266Z,15.68
2022-10-24T05:50:42.991Z,15.79
2022-10-24T05:55:45.098Z,15.99
2022-10-24T06:00:52.555Z,16.28
2022-10-24T06:05:55.373Z,16.41
2022-10-24T06:10:56.808Z,16.49
2022-10-24T06:15:58.301Z,16.58
2022-10-24T06:21:02.184Z,16.65
2022-10-24T06:26:07.741Z,16.74
2022-10-24T06:31:11.105Z,16.83
2022-10-24T06:36:14.408Z,16.91
2022-10-24T06:41:17.312Z,16.97
2022-10-24T06:46:23.140Z,16.89
2022-10-24T06:51:25.211Z,17.00
2022-10-24T06:56:26.857Z,17.11
2022-10-24T07:01:28.751Z,17.10
2022-10-24T07:06:30.305Z,17.05
2022-10-24T07:11:32.581Z,17.03
2022-10-24T07:16:34.222Z,17.02
2022-10-24T07:21:35.981Z,17.06
2022-10-24T07:26:39.591Z,17.08
2022-10-24T07:31:42.258Z,17.17
2022-10-24T07:36:44.109Z,17.25
2022-10-24T07:41:46.791Z,17.36
2022-10-24T07:46:49.123Z,17.44
2022-10-24T07:51:50.947Z,17.51
2022-10-24T07:56:54.129Z,17.64
2022-10-24T08:01:56.082Z,17.83
2022-10-24T08:06:58.490Z,18.17
2022-10-24T08:12:00.319Z,18.53
2022-10-24T08:17:01.828Z,18.82
2022-10-24T08:22:03.885Z,18.89
2022-10-24T08:27:05.435Z,18.91
2022-10-24T08:32:07.332Z,18.89
2022-10-24T08:37:08.908Z,18.87
2022-10-24T08:42:14.797Z,18.79
2022-10-24T08:47:22.498Z,18.76
2022-10-24T08:52:28.754Z,18.84
2022-10-24T09:02:44.289Z,18.97
2022-10-24T09:07:48.169Z,19.10
2022-10-24T09:12:49.850Z,19.29
2022-10-24T09:17:52.651Z,19.49
2022-10-24T09:22:57.621Z,19.74
2022-10-24T09:28:02.666Z,19.91
2022-10-24T09:33:25.554Z,20.09
2022-10-24T09:38:36.049Z,20.22
2022-10-24T09:43:40.520Z,20.30
2022-10-24T09:48:41.932Z,20.32
2022-10-24T09:54:02.282Z,20.46
2022-10-24T09:59:36.031Z,20.64
2022-10-24T10:04:41.670Z,20.53
2022-10-24T10:09:52.750Z,20.41
2022-10-24T10:14:58.200Z,20.38
2022-10-24T10:19:59.874Z,20.46
2022-10-24T10:25:01.673Z,20.50
2022-10-24T10:30:17.844Z,20.54
2022-10-24T10:35:52.044Z,20.77
2022-10-24T10:41:03.872Z,21.02
2022-10-24T10:46:08.425Z,21.23
2022-10-24T10:51:58.808Z,21.86
2022-10-24T10:57:06.872Z,21.96
2022-10-24T11:02:27.209Z,22.15
2022-10-24T11:07:40.508Z,22.25
2022-10-24T11:12:44.139Z,22.18
2022-10-24T11:17:47.788Z,22.18
2022-10-24T11:22:58.864Z,22.22
2022-10-24T11:28:13.884Z,22.32
2022-10-24T11:33:21.000Z,22.31
2022-10-24T11:38:24.267Z,22.25
2022-10-24T11:43:31.039Z,22.09
2022-10-24T11:48:40.832Z,21.75
2022-10-24T11:53:48.055Z,21.60
2022-10-24T11:58:52.417Z,21.67
2022-10-24T12:04:03.765Z,21.74
2022-10-24T12:09:08.381Z,21.83
2022-10-24T12:14:09.876Z,21.87
2022-10-24T12:19:13.946Z,21.88
2022-10-24T12:24:24.450Z,22.10
2022-10-24T12:29:26.966Z,22.19
2022-10-24T12:34:28.352Z,22.13
2022-10-24T12:39:34.722Z,21.97
2022-10-24T12:44:37.921Z,21.86
2022-10-24T12:49:39.266Z,21.89
2022-10-24T12:54:40.682Z,22.04
2022-10-24T12:59:46.394Z,22.06
2022-10-24T13:05:07.895Z,21.99
2022-10-24T13:10:11.970Z,21.90
2022-10-24T13:15:27.418Z,21.86
2022-10-24T13:20:32.701Z,21.75
2022-10-24T13:25:38.791Z,21.49
2022-10-24T13:30:40.228Z,21.41
2022-10-24T13:35:41.836Z,21.56
2022-10-24T13:40:44.436Z,21.68
2022-10-24T13:45:51.744Z,21.71
2022-10-24T13:51:07.246Z,21.70
2022-10-24T13:56:13.599Z,21.58
2022-10-24T14:01:15.055Z,21.44
2022-10-24T14:06:16.612Z,21.38
2022-10-24T14:11:23.631Z,21.27
2022-10-24T14:16:26.336Z,21.07
2022-10-24T14:21:27.694Z,20.94
2022-10-24T14:26:29.360Z,21.02
2022-10-24T14:31:34.810Z,21.19
2022-10-24T14:36:38.187Z,21.30
2022-10-24T14:41:40.749Z,21.19
2022-10-24T14:46:42.977Z,20.99
2022-10-24T14:51:44.488Z,20.71
2022-10-24T14:56:46.305Z,20.48
2022-10-24T15:01:57.993Z,20.41
2022-10-24T15:07:12.196Z,20.26
2022-10-24T15:12:13.694Z,20.18
2022-10-24T15:17:18.764Z,20.13
2022-10-24T15:22:36.614Z,20.10
2022-10-24T15:27:39.556Z,20.05
2022-10-24T15:32:41.102Z,19.95
2022-10-24T15:37:53.481Z,19.94
2022-10-24T15:42:55.063Z,19.90
2022-10-24T15:47:56.478Z,19.83
2022-10-24T15:53:00.367Z,19.77
2022-10-24T15:58:31.735Z,19.65
2022-10-24T16:03:34.211Z,19.45
2022-10-24T16:08:35.553Z,19.26
2022-10-24T16:13:36.966Z,19.12
2022-10-24T16:18:38.351Z,18.97
2022-10-24T16:23:39.782Z,18.93
2022-10-24T16:28:41.542Z,18.84
2022-10-24T16:33:42.842Z,18.77
2022-10-24T16:38:45.360Z,18.77
2022-10-24T16:43:49.137Z,18.79
2022-10-24T16:48:51.518Z,18.84
2022-10-24T16:53:53.020Z,18.85
2022-10-24T16:58:54.371Z,18.79
2022-10-24T17:03:55.739Z,18.72
2022-10-24T17:08:57.062Z,18.36
2022-10-24T17:13:58.592Z,18.07
2022-10-24T17:19:14.845Z,17.76
2022-10-24T17:24:18.194Z,17.51
2022-10-24T17:29:23.999Z,17.24
2022-10-24T17:34:25.563Z,16.79
2022-10-24T17:39:31.381Z,16.42
2022-10-24T17:44:32.892Z,16.13
2022-10-24T17:49:34.248Z,15.81
2022-10-24T17:54:36.097Z,15.61
2022-10-24T17:59:37.417Z,15.47
2022-10-24T18:04:40.579Z,15.50
2022-10-24T18:09:41.964Z,15.46
2022-10-24T18:14:43.286Z,15.37
2022-10-24T18:19:47.143Z,15.34
2022-10-24T18:24:48.510Z,15.40
2022-10-24T18:29:49.843Z,15.51
2022-10-24T18:34:51.168Z,15.52
2022-10-24T18:39:53.503Z,15.56
2022-10-24T18:44:54.966Z,15.55
2022-10-24T18:49:57.404Z,15.50
2022-10-24T18:55:12.958Z,15.45
2022-10-24T19:00:15.861Z,15.52
2022-10-24T19:05:20.143Z,15.52
2022-10-24T19:10:25.744Z,15.48
2022-10-24T19:15:28.026Z,15.52
2022-10-24T19:20:32.254Z,15.59
2022-10-24T19:25:33.638Z,15.67
2022-10-24T19:30:34.985Z,15.77
2022-10-24T19:35:37.394Z,15.89
2022-10-24T19:40:44.511Z,15.86
2022-10-24T19:45:50.871Z,15.64
2022-10-24T19:51:06.381Z,15.42
2022-10-24T19:56:12.249Z,15.30
2022-10-24T20:01:15.556Z,15.25
2022-10-24T20:06:17.405Z,15.27
2022-10-24T20:11:20.555Z,15.26
2022-10-24T20:16:23.316Z,15.30
2022-10-24T20:21:24.698Z,15.27
2022-10-24T20:26:26.596Z,15.22
2022-10-24T20:31:35.411Z,15.12
2022-10-24T20:36:38.066Z,14.98
2022-10-24T20:41:39.464Z,14.86
2022-10-24T20:46:40.969Z,14.79
2022-10-24T20:51:42.897Z,14.76
2022-10-24T20:56:44.369Z,14.74
2022-10-24T21:01:45.900Z,14.72
2022-10-24T21:06:47.324Z,14.69
2022-10-24T21:11:48.862Z,14.61
2022-10-24T21:16:50.264Z,14.56
2022-10-24T21:21:51.567Z,14.50
2022-10-24T21:26:53.733Z,14.42
2022-10-24T21:31:55.167Z,14.36
2022-10-24T21:36:56.523Z,14.31
2022-10-24T21:41:58.175Z,14.26
2022-10-24T21:46:59.650Z,14.20
2022-10-24T21:52:01.009Z,14.13
2022-10-24T21:57:02.328Z,14.06
2022-10-24T22:02:03.784Z,13.97
2022-10-24T22:07:05.971Z,13.86
2022-10-24T22:12:07.409Z,13.76
2022-10-24T22:17:08.787Z,13.65
2022-10-24T22:22:10.163Z,13.50
2022-10-24T22:27:11.491Z,13.32
2022-10-24T22:32:13.973Z,13.18
2022-10-24T22:37:18.348Z,13.05
2022-10-24T22:42:20.397Z,12.96
2022-10-24T22:47:24.819Z,12.87
2022-10-24T22:52:26.280Z,12.78
2022-10-24T22:57:27.946Z,12.67
2022-10-24T23:02:33.776Z,12.53
2022-10-24T23:07:38.503Z,12.42
2022-10-24T23:12:40.009Z,12.39
2022-10-24T23:17:41.830Z,12.30
2022-10-24T23:22:44.508Z,12.29
2022-10-24T23:27:46.192Z,12.43
2022-10-24T23:32:49.064Z,12.68
2022-10-24T23:37:51.746Z,12.71
2022-10-24T23:42:53.562Z,12.62
2022-10-24T23:48:06.339Z,12.64
2022-10-24T23:53:26.370Z,12.69
2022-10-24T23:58:27.704Z,12.77
